sensor_id;sensor_type;location;lat;lon;timestamp;P1;durP1;ratioP1;P2;durP2;ratioP2
8893;SDS011;4483;48.622;9.230;2023-03-07T00:00:56;7.90;;;5.63;;
8893;SDS011;4483;48.622;9.230;2023-03-07T00:03:23;7.77;;;6.20;;
8893;SDS011;4483;48.622;9.230;2023-03-07T00:05:58;8.60;;;5.23;;
8893;SDS011;4483;48.622;9.230;2023-03-07T00:08:25;7.70;;;6.30;;
8893;SDS011;4483;48.622;9.230;2023-03-07T00:10:52;9.17;;;6.13;;
8893;SDS011;4483;48.622;9.230;2023-03-07T00:13:20;7.73;;;5.97;;
8893;SDS011;4483;48.622;9.230;2023-03-07T00:15:47;8.00;;;6.40;;
8893;SDS011;4483;48.622;9.230;2023-03-07T00:18:14;7.83;;;5.93;;
8893;SDS011;4483;48.622;9.230;2023-03-07T00:20:40;8.77;;;6.10;;
8893;SDS011;4483;48.622;9.230;2023-03-07T00:23:07;6.10;;;4.97;;
8893;SDS011;4483;48.622;9.230;2023-03-07T00:25:33;8.73;;;5.50;;
8893;SDS011;4483;48.622;9.230;2023-03-07T00:28:00;8.10;;;5.90;;
8893;SDS011;4483;48.622;9.230;2023-03-07T00:30:28;8.13;;;5.87;;
8893;SDS011;4483;48.622;9.230;2023-03-07T00:32:54;7.77;;;6.13;;
8893;SDS011;4483;48.622;9.230;2023-03-07T00:35:21;6.87;;;5.90;;
8893;SDS011;4483;48.622;9.230;2023-03-07T00:37:48;7.20;;;5.40;;
8893;SDS011;4483;48.622;9.230;2023-03-07T00:40:14;7.13;;;5.90;;
8893;SDS011;4483;48.622;9.230;2023-03-07T00:42:41;8.20;;;6.13;;
8893;SDS011;4483;48.622;9.230;2023-03-07T00:45:08;7.83;;;5.73;;
8893;SDS011;4483;48.622;9.230;2023-03-07T00:47:36;8.83;;;5.40;;
8893;SDS011;4483;48.622;9.230;2023-03-07T00:50:03;10.07;;;6.23;;
8893;SDS011;4483;48.622;9.230;2023-03-07T00:52:30;9.97;;;5.83;;
8893;SDS011;4483;48.622;9.230;2023-03-07T00:54:59;8.03;;;6.03;;
8893;SDS011;4483;48.622;9.230;2023-03-07T01:37:48;8.47;;;5.60;;
8893;SDS011;4483;48.622;9.230;2023-03-07T01:40:15;10.20;;;6.53;;
8893;SDS011;4483;48.622;9.230;2023-03-07T01:42:42;9.23;;;6.40;;
8893;SDS011;4483;48.622;9.230;2023-03-07T01:48:09;11.73;;;6.50;;
8893;SDS011;4483;48.622;9.230;2023-03-07T01:50:36;9.50;;;6.30;;
8893;SDS011;4483;48.622;9.230;2023-03-07T01:53:04;11.20;;;6.10;;
8893;SDS011;4483;48.622;9.230;2023-03-07T01:55:32;8.33;;;6.47;;
8893;SDS011;4483;48.622;9.230;2023-03-07T01:58:03;8.07;;;5.80;;
8893;SDS011;4483;48.622;9.230;2023-03-07T02:44:17;7.63;;;6.30;;
8893;SDS011;4483;48.622;9.230;2023-03-07T02:46:43;9.27;;;6.33;;
8893;SDS011;4483;48.622;9.230;2023-03-07T02:49:10;9.47;;;6.83;;
8893;SDS011;4483;48.622;9.230;2023-03-07T02:51:37;8.07;;;6.30;;
8893;SDS011;4483;48.622;9.230;2023-03-07T02:54:03;10.50;;;6.10;;
8893;SDS011;4483;48.622;9.230;2023-03-07T02:56:31;8.27;;;6.50;;
8893;SDS011;4483;48.622;9.230;2023-03-07T02:58:57;10.00;;;6.63;;
8893;SDS011;4483;48.622;9.230;2023-03-07T03:01:25;9.60;;;6.87;;
8893;SDS011;4483;48.622;9.230;2023-03-07T03:03:52;10.50;;;6.37;;
8893;SDS011;4483;48.622;9.230;2023-03-07T03:06:20;9.33;;;6.43;;
8893;SDS011;4483;48.622;9.230;2023-03-07T03:08:46;9.97;;;6.73;;
8893;SDS011;4483;48.622;9.230;2023-03-07T03:11:13;9.00;;;6.43;;
8893;SDS011;4483;48.622;9.230;2023-03-07T03:13:39;8.77;;;6.43;;
8893;SDS011;4483;48.622;9.230;2023-03-07T03:16:06;9.27;;;6.47;;
8893;SDS011;4483;48.622;9.230;2023-03-07T03:18:34;9.33;;;6.70;;
8893;SDS011;4483;48.622;9.230;2023-03-07T03:21:05;8.97;;;6.27;;
8893;SDS011;4483;48.622;9.230;2023-03-07T03:23:33;7.57;;;5.83;;
8893;SDS011;4483;48.622;9.230;2023-03-07T03:26:01;9.77;;;6.50;;
8893;SDS011;4483;48.622;9.230;2023-03-07T03:28:31;10.80;;;6.50;;
8893;SDS011;4483;48.622;9.230;2023-03-07T03:30:58;9.27;;;6.27;;
8893;SDS011;4483;48.622;9.230;2023-03-07T03:33:27;6.93;;;5.87;;
8893;SDS011;4483;48.622;9.230;2023-03-07T03:35:55;9.10;;;6.00;;
8893;SDS011;4483;48.622;9.230;2023-03-07T03:38:22;8.33;;;6.27;;
8893;SDS011;4483;48.622;9.230;2023-03-07T03:40:49;8.37;;;5.90;;
8893;SDS011;4483;48.622;9.230;2023-03-07T03:43:16;9.43;;;6.43;;
8893;SDS011;4483;48.622;9.230;2023-03-07T03:45:42;8.73;;;6.57;;
8893;SDS011;4483;48.622;9.230;2023-03-07T03:48:09;7.80;;;6.47;;
8893;SDS011;4483;48.622;9.230;2023-03-07T03:50:36;8.93;;;6.43;;
8893;SDS011;4483;48.622;9.230;2023-03-07T03:53:04;8.67;;;6.40;;
8893;SDS011;4483;48.622;9.230;2023-03-07T03:55:30;8.63;;;6.50;;
8893;SDS011;4483;48.622;9.230;2023-03-07T03:57:57;7.60;;;6.50;;
8893;SDS011;4483;48.622;9.230;2023-03-07T04:00:24;8.90;;;5.87;;
8893;SDS011;4483;48.622;9.230;2023-03-07T04:02:50;10.13;;;6.70;;
8893;SDS011;4483;48.622;9.230;2023-03-07T04:05:17;9.00;;;5.57;;
8893;SDS011;4483;48.622;9.230;2023-03-07T04:07:44;10.53;;;6.67;;
8893;SDS011;4483;48.622;9.230;2023-03-07T04:10:12;8.40;;;5.97;;
8893;SDS011;4483;48.622;9.230;2023-03-07T04:12:38;8.63;;;6.47;;
8893;SDS011;4483;48.622;9.230;2023-03-07T04:15:05;8.77;;;6.07;;
8893;SDS011;4483;48.622;9.230;2023-03-07T04:17:33;8.57;;;5.97;;
8893;SDS011;4483;48.622;9.230;2023-03-07T04:20:00;8.90;;;6.57;;
8893;SDS011;4483;48.622;9.230;2023-03-07T04:22:28;7.97;;;6.17;;
8893;SDS011;4483;48.622;9.230;2023-03-07T04:24:55;9.37;;;6.23;;
8893;SDS011;4483;48.622;9.230;2023-03-07T04:27:23;7.93;;;5.73;;
8893;SDS011;4483;48.622;9.230;2023-03-07T04:29:50;9.27;;;6.53;;
8893;SDS011;4483;48.622;9.230;2023-03-07T04:32:16;9.07;;;5.30;;
8893;SDS011;4483;48.622;9.230;2023-03-07T04:34:43;7.87;;;5.63;;
8893;SDS011;4483;48.622;9.230;2023-03-07T04:37:09;8.60;;;5.90;;
8893;SDS011;4483;48.622;9.230;2023-03-07T04:39:36;10.67;;;5.60;;
8893;SDS011;4483;48.622;9.230;2023-03-07T04:42:03;11.50;;;6.00;;
8893;SDS011;4483;48.622;9.230;2023-03-07T04:44:31;9.00;;;6.13;;
8893;SDS011;4483;48.622;9.230;2023-03-07T04:46:57;9.43;;;6.10;;
8893;SDS011;4483;48.622;9.230;2023-03-07T04:49:24;8.37;;;5.60;;
8893;SDS011;4483;48.622;9.230;2023-03-07T04:51:51;7.60;;;5.90;;
8893;SDS011;4483;48.622;9.230;2023-03-07T04:54:17;7.57;;;5.50;;
8893;SDS011;4483;48.622;9.230;2023-03-07T04:56:44;8.40;;;5.87;;
8893;SDS011;4483;48.622;9.230;2023-03-07T04:59:10;8.37;;;5.70;;
8893;SDS011;4483;48.622;9.230;2023-03-07T05:01:39;7.50;;;5.63;;
8893;SDS011;4483;48.622;9.230;2023-03-07T05:04:05;9.43;;;5.90;;
8893;SDS011;4483;48.622;9.230;2023-03-07T05:06:32;8.47;;;6.07;;
8893;SDS011;4483;48.622;9.230;2023-03-07T05:08:58;7.50;;;5.80;;
8893;SDS011;4483;48.622;9.230;2023-03-07T05:11:25;6.63;;;4.93;;
8893;SDS011;4483;48.622;9.230;2023-03-07T05:13:52;8.07;;;6.00;;
8893;SDS011;4483;48.622;9.230;2023-03-07T05:16:18;9.43;;;5.43;;
8893;SDS011;4483;48.622;9.230;2023-03-07T05:18:46;8.73;;;5.97;;
8893;SDS011;4483;48.622;9.230;2023-03-07T05:21:13;7.03;;;5.70;;
8893;SDS011;4483;48.622;9.230;2023-03-07T05:23:39;7.33;;;5.60;;
8893;SDS011;4483;48.622;9.230;2023-03-07T05:26:06;6.83;;;5.43;;
8893;SDS011;4483;48.622;9.230;2023-03-07T05:28:33;7.33;;;5.20;;
8893;SDS011;4483;48.622;9.230;2023-03-07T05:30:59;7.97;;;5.83;;
8893;SDS011;4483;48.622;9.230;2023-03-07T05:33:26;7.57;;;5.73;;
8893;SDS011;4483;48.622;9.230;2023-03-07T05:35:57;6.53;;;5.20;;
8893;SDS011;4483;48.622;9.230;2023-03-07T05:38:24;7.90;;;5.47;;
8893;SDS011;4483;48.622;9.230;2023-03-07T05:40:51;8.30;;;6.03;;
8893;SDS011;4483;48.622;9.230;2023-03-07T05:43:17;6.57;;;5.17;;
8893;SDS011;4483;48.622;9.230;2023-03-07T05:45:44;6.60;;;5.10;;
8893;SDS011;4483;48.622;9.230;2023-03-07T05:48:11;7.30;;;5.30;;
8893;SDS011;4483;48.622;9.230;2023-03-07T05:50:37;9.83;;;5.63;;
8893;SDS011;4483;48.622;9.230;2023-03-07T05:53:05;7.30;;;5.33;;
8893;SDS011;4483;48.622;9.230;2023-03-07T05:55:32;6.07;;;5.07;;
8893;SDS011;4483;48.622;9.230;2023-03-07T05:57:59;7.37;;;5.43;;
8893;SDS011;4483;48.622;9.230;2023-03-07T06:00:26;8.63;;;5.50;;
8893;SDS011;4483;48.622;9.230;2023-03-07T06:02:52;7.23;;;5.27;;
8893;SDS011;4483;48.622;9.230;2023-03-07T06:05:19;9.50;;;5.57;;
8893;SDS011;4483;48.622;9.230;2023-03-07T06:07:46;6.30;;;5.43;;
8893;SDS011;4483;48.622;9.230;2023-03-07T06:10:15;5.43;;;4.80;;
8893;SDS011;4483;48.622;9.230;2023-03-07T06:12:42;7.17;;;5.73;;
8893;SDS011;4483;48.622;9.230;2023-03-07T06:15:09;9.37;;;5.73;;
8893;SDS011;4483;48.622;9.230;2023-03-07T06:17:36;8.03;;;4.97;;
8893;SDS011;4483;48.622;9.230;2023-03-07T06:20:03;7.07;;;5.37;;
8893;SDS011;4483;48.622;9.230;2023-03-07T06:22:31;7.70;;;5.37;;
8893;SDS011;4483;48.622;9.230;2023-03-07T06:24:58;9.43;;;4.93;;
8893;SDS011;4483;48.622;9.230;2023-03-07T06:27:26;7.87;;;5.47;;
8893;SDS011;4483;48.622;9.230;2023-03-07T06:29:53;9.13;;;5.47;;
8893;SDS011;4483;48.622;9.230;2023-03-07T06:32:20;5.23;;;4.40;;
8893;SDS011;4483;48.622;9.230;2023-03-07T06:34:46;5.57;;;4.97;;
8893;SDS011;4483;48.622;9.230;2023-03-07T06:37:13;6.93;;;4.87;;
8893;SDS011;4483;48.622;9.230;2023-03-07T06:39:40;7.73;;;5.53;;
8893;SDS011;4483;48.622;9.230;2023-03-07T06:42:06;14.23;;;5.27;;
8893;SDS011;4483;48.622;9.230;2023-03-07T06:44:35;8.07;;;4.97;;
8893;SDS011;4483;48.622;9.230;2023-03-07T06:47:01;9.07;;;5.33;;
8893;SDS011;4483;48.622;9.230;2023-03-07T06:49:28;6.30;;;4.73;;
8893;SDS011;4483;48.622;9.230;2023-03-07T06:51:55;6.57;;;5.17;;
8893;SDS011;4483;48.622;9.230;2023-03-07T06:54:21;10.07;;;5.37;;
8893;SDS011;4483;48.622;9.230;2023-03-07T06:56:48;6.27;;;4.90;;
8893;SDS011;4483;48.622;9.230;2023-03-07T06:59:15;7.07;;;4.80;;
8893;SDS011;4483;48.622;9.230;2023-03-07T07:01:45;9.63;;;4.97;;
8893;SDS011;4483;48.622;9.230;2023-03-07T07:04:12;6.37;;;5.27;;
8893;SDS011;4483;48.622;9.230;2023-03-07T07:06:39;7.07;;;4.43;;
8893;SDS011;4483;48.622;9.230;2023-03-07T07:09:06;8.77;;;5.77;;
8893;SDS011;4483;48.622;9.230;2023-03-07T07:11:32;7.30;;;5.17;;
8893;SDS011;4483;48.622;9.230;2023-03-07T07:13:59;10.50;;;4.93;;
8893;SDS011;4483;48.622;9.230;2023-03-07T07:16:25;10.97;;;4.90;;
8893;SDS011;4483;48.622;9.230;2023-03-07T07:18:54;7.20;;;5.17;;
8893;SDS011;4483;48.622;9.230;2023-03-07T07:21:21;5.43;;;4.83;;
8893;SDS011;4483;48.622;9.230;2023-03-07T07:23:47;7.03;;;5.03;;
8893;SDS011;4483;48.622;9.230;2023-03-07T07:26:14;6.27;;;4.70;;
8893;SDS011;4483;48.622;9.230;2023-03-07T07:28:41;6.97;;;4.97;;
8893;SDS011;4483;48.622;9.230;2023-03-07T07:31:07;9.13;;;4.87;;
8893;SDS011;4483;48.622;9.230;2023-03-07T07:33:34;7.30;;;5.23;;
8893;SDS011;4483;48.622;9.230;2023-03-07T07:36:02;6.10;;;4.73;;
8893;SDS011;4483;48.622;9.230;2023-03-07T07:38:29;5.67;;;4.77;;
8893;SDS011;4483;48.622;9.230;2023-03-07T07:40:56;6.57;;;5.00;;
8893;SDS011;4483;48.622;9.230;2023-03-07T07:43:22;8.23;;;5.37;;
8893;SDS011;4483;48.622;9.230;2023-03-07T07:45:49;7.57;;;5.20;;
8893;SDS011;4483;48.622;9.230;2023-03-07T07:48:16;7.93;;;4.90;;
8893;SDS011;4483;48.622;9.230;2023-03-07T07:50:42;5.63;;;5.03;;
8893;SDS011;4483;48.622;9.230;2023-03-07T07:53:11;7.50;;;5.27;;
8893;SDS011;4483;48.622;9.230;2023-03-07T07:55:38;6.47;;;5.17;;
8893;SDS011;4483;48.622;9.230;2023-03-07T07:58:05;8.37;;;5.20;;
8893;SDS011;4483;48.622;9.230;2023-03-07T08:00:31;6.23;;;5.03;;
8893;SDS011;4483;48.622;9.230;2023-03-07T08:02:58;6.03;;;5.27;;
8893;SDS011;4483;48.622;9.230;2023-03-07T08:05:25;7.60;;;5.07;;
8893;SDS011;4483;48.622;9.230;2023-03-07T08:07:51;8.17;;;5.27;;
8893;SDS011;4483;48.622;9.230;2023-03-07T08:10:19;6.97;;;4.80;;
8893;SDS011;4483;48.622;9.230;2023-03-07T08:12:47;5.73;;;5.17;;
8893;SDS011;4483;48.622;9.230;2023-03-07T08:15:15;6.80;;;5.30;;
8893;SDS011;4483;48.622;9.230;2023-03-07T08:17:43;6.73;;;5.13;;
8893;SDS011;4483;48.622;9.230;2023-03-07T08:20:10;6.07;;;5.07;;
8893;SDS011;4483;48.622;9.230;2023-03-07T08:22:37;6.20;;;5.00;;
8893;SDS011;4483;48.622;9.230;2023-03-07T08:25:04;5.87;;;4.43;;
8893;SDS011;4483;48.622;9.230;2023-03-07T08:27:33;5.47;;;4.87;;
8893;SDS011;4483;48.622;9.230;2023-03-07T08:30:00;5.13;;;4.53;;
8893;SDS011;4483;48.622;9.230;2023-03-07T08:32:26;5.83;;;4.80;;
8893;SDS011;4483;48.622;9.230;2023-03-07T08:34:53;4.87;;;4.47;;
8893;SDS011;4483;48.622;9.230;2023-03-07T08:37:20;5.70;;;5.07;;
8893;SDS011;4483;48.622;9.230;2023-03-07T08:39:47;6.83;;;5.13;;
8893;SDS011;4483;48.622;9.230;2023-03-07T08:42:13;5.77;;;4.90;;
8893;SDS011;4483;48.622;9.230;2023-03-07T08:44:41;8.57;;;5.20;;
8893;SDS011;4483;48.622;9.230;2023-03-07T08:47:08;7.67;;;5.20;;
8893;SDS011;4483;48.622;9.230;2023-03-07T08:49:37;6.07;;;5.20;;
8893;SDS011;4483;48.622;9.230;2023-03-07T08:52:04;5.70;;;4.43;;
8893;SDS011;4483;48.622;9.230;2023-03-07T08:54:31;6.60;;;4.70;;
8893;SDS011;4483;48.622;9.230;2023-03-07T08:56:57;5.37;;;4.70;;
8893;SDS011;4483;48.622;9.230;2023-03-07T08:59:24;6.57;;;4.93;;
8893;SDS011;4483;48.622;9.230;2023-03-07T09:01:53;5.50;;;4.73;;
8893;SDS011;4483;48.622;9.230;2023-03-07T09:04:21;5.93;;;4.90;;
8893;SDS011;4483;48.622;9.230;2023-03-07T09:06:48;6.20;;;5.00;;
8893;SDS011;4483;48.622;9.230;2023-03-07T09:09:14;5.10;;;4.43;;
8893;SDS011;4483;48.622;9.230;2023-03-07T09:11:41;6.33;;;4.80;;
8893;SDS011;4483;48.622;9.230;2023-03-07T09:14:07;5.33;;;4.70;;
8893;SDS011;4483;48.622;9.230;2023-03-07T09:16:34;6.43;;;5.10;;
8893;SDS011;4483;48.622;9.230;2023-03-07T09:19:02;7.27;;;4.97;;
8893;SDS011;4483;48.622;9.230;2023-03-07T09:21:29;5.47;;;4.57;;
8893;SDS011;4483;48.622;9.230;2023-03-07T09:23:56;5.10;;;4.10;;
8893;SDS011;4483;48.622;9.230;2023-03-07T09:26:23;5.70;;;4.40;;
8893;SDS011;4483;48.622;9.230;2023-03-07T09:28:49;5.37;;;4.07;;
8893;SDS011;4483;48.622;9.230;2023-03-07T09:31:16;4.33;;;3.93;;
8893;SDS011;4483;48.622;9.230;2023-03-07T09:33:43;4.67;;;4.17;;
8893;SDS011;4483;48.622;9.230;2023-03-07T09:36:11;5.10;;;4.07;;
8893;SDS011;4483;48.622;9.230;2023-03-07T09:38:38;5.23;;;4.43;;
8893;SDS011;4483;48.622;9.230;2023-03-07T09:41:07;5.63;;;4.60;;
8893;SDS011;4483;48.622;9.230;2023-03-07T09:43:47;5.47;;;4.50;;
8893;SDS011;4483;48.622;9.230;2023-03-07T09:46:25;4.83;;;4.20;;
8893;SDS011;4483;48.622;9.230;2023-03-07T09:49:06;8.53;;;4.37;;
8893;SDS011;4483;48.622;9.230;2023-03-07T09:51:45;5.10;;;4.60;;
8893;SDS011;4483;48.622;9.230;2023-03-07T09:54:16;5.47;;;4.90;;
8893;SDS011;4483;48.622;9.230;2023-03-07T09:56:45;5.10;;;4.13;;
8893;SDS011;4483;48.622;9.230;2023-03-07T09:59:15;6.40;;;4.60;;
8893;SDS011;4483;48.622;9.230;2023-03-07T10:01:47;7.23;;;4.70;;
8893;SDS011;4483;48.622;9.230;2023-03-07T10:04:18;5.53;;;4.37;;
8893;SDS011;4483;48.622;9.230;2023-03-07T10:06:53;5.97;;;4.33;;
8893;SDS011;4483;48.622;9.230;2023-03-07T10:09:22;7.43;;;4.23;;
8893;SDS011;4483;48.622;9.230;2023-03-07T10:14:50;9.27;;;4.90;;
8893;SDS011;4483;48.622;9.230;2023-03-07T10:17:31;5.43;;;4.50;;
8893;SDS011;4483;48.622;9.230;2023-03-07T10:20:12;4.37;;;3.97;;
8893;SDS011;4483;48.622;9.230;2023-03-07T10:22:50;7.23;;;4.67;;
8893;SDS011;4483;48.622;9.230;2023-03-07T10:25:23;4.90;;;4.47;;
8893;SDS011;4483;48.622;9.230;2023-03-07T10:27:53;5.70;;;4.10;;
8893;SDS011;4483;48.622;9.230;2023-03-07T10:30:28;5.07;;;3.97;;
8893;SDS011;4483;48.622;9.230;2023-03-07T10:32:56;5.33;;;4.40;;
8893;SDS011;4483;48.622;9.230;2023-03-07T10:35:31;4.70;;;4.07;;
8893;SDS011;4483;48.622;9.230;2023-03-07T10:38:08;5.00;;;4.07;;
8893;SDS011;4483;48.622;9.230;2023-03-07T10:40:45;4.77;;;3.83;;
8893;SDS011;4483;48.622;9.230;2023-03-07T10:43:16;5.57;;;4.40;;
8893;SDS011;4483;48.622;9.230;2023-03-07T10:45:48;4.87;;;4.10;;
8893;SDS011;4483;48.622;9.230;2023-03-07T10:48:15;5.07;;;4.07;;
8893;SDS011;4483;48.622;9.230;2023-03-07T10:50:45;5.13;;;4.30;;
8893;SDS011;4483;48.622;9.230;2023-03-07T10:53:23;5.07;;;4.17;;
8893;SDS011;4483;48.622;9.230;2023-03-07T10:55:51;7.90;;;4.10;;
8893;SDS011;4483;48.622;9.230;2023-03-07T10:58:34;5.70;;;4.63;;
8893;SDS011;4483;48.622;9.230;2023-03-07T11:01:07;5.30;;;4.80;;
8893;SDS011;4483;48.622;9.230;2023-03-07T11:03:43;4.50;;;4.07;;
8893;SDS011;4483;48.622;9.230;2023-03-07T11:06:34;6.47;;;4.27;;
8893;SDS011;4483;48.622;9.230;2023-03-07T11:09:08;5.47;;;4.80;;
8893;SDS011;4483;48.622;9.230;2023-03-07T11:11:39;6.10;;;4.80;;
8893;SDS011;4483;48.622;9.230;2023-03-07T11:14:13;5.23;;;4.43;;
8893;SDS011;4483;48.622;9.230;2023-03-07T11:16:40;6.50;;;4.67;;
8893;SDS011;4483;48.622;9.230;2023-03-07T11:19:22;6.80;;;4.90;;
8893;SDS011;4483;48.622;9.230;2023-03-07T11:21:57;5.47;;;4.53;;
8893;SDS011;4483;48.622;9.230;2023-03-07T11:24:27;4.77;;;4.17;;
8893;SDS011;4483;48.622;9.230;2023-03-07T11:26:56;6.33;;;4.90;;
8893;SDS011;4483;48.622;9.230;2023-03-07T11:29:24;5.93;;;4.67;;
8893;SDS011;4483;48.622;9.230;2023-03-07T11:31:55;8.17;;;4.20;;
8893;SDS011;4483;48.622;9.230;2023-03-07T11:34:30;5.83;;;4.70;;
8893;SDS011;4483;48.622;9.230;2023-03-07T11:40:02;6.43;;;5.07;;
8893;SDS011;4483;48.622;9.230;2023-03-07T11:42:55;7.73;;;4.60;;
8893;SDS011;4483;48.622;9.230;2023-03-07T11:45:31;5.87;;;4.47;;
8893;SDS011;4483;48.622;9.230;2023-03-07T11:48:11;7.20;;;4.67;;
8893;SDS011;4483;48.622;9.230;2023-03-07T11:50:52;6.43;;;4.80;;
8893;SDS011;4483;48.622;9.230;2023-03-07T11:53:28;6.20;;;4.87;;
8893;SDS011;4483;48.622;9.230;2023-03-07T11:56:16;6.67;;;4.77;;
8893;SDS011;4483;48.622;9.230;2023-03-07T11:59:02;6.83;;;5.20;;
8893;SDS011;4483;48.622;9.230;2023-03-07T12:01:46;5.47;;;4.50;;
8893;SDS011;4483;48.622;9.230;2023-03-07T12:04:41;5.43;;;4.30;;
8893;SDS011;4483;48.622;9.230;2023-03-07T12:07:27;6.00;;;4.57;;
8893;SDS011;4483;48.622;9.230;2023-03-07T12:10:07;5.80;;;4.50;;
8893;SDS011;4483;48.622;9.230;2023-03-07T12:12:53;6.53;;;4.50;;
8893;SDS011;4483;48.622;9.230;2023-03-07T12:15:33;5.23;;;4.73;;
8893;SDS011;4483;48.622;9.230;2023-03-07T12:18:17;6.40;;;5.07;;
8893;SDS011;4483;48.622;9.230;2023-03-07T12:20:56;7.37;;;5.37;;
8893;SDS011;4483;48.622;9.230;2023-03-07T12:23:32;8.40;;;5.67;;
8893;SDS011;4483;48.622;9.230;2023-03-07T12:26:09;5.70;;;4.70;;
8893;SDS011;4483;48.622;9.230;2023-03-07T12:28:43;6.80;;;4.80;;
8893;SDS011;4483;48.622;9.230;2023-03-07T12:31:14;5.97;;;4.50;;
8893;SDS011;4483;48.622;9.230;2023-03-07T12:33:46;5.87;;;4.40;;
8893;SDS011;4483;48.622;9.230;2023-03-07T12:36:20;5.63;;;4.40;;
8893;SDS011;4483;48.622;9.230;2023-03-07T12:38:54;8.93;;;5.13;;
8893;SDS011;4483;48.622;9.230;2023-03-07T12:41:34;6.60;;;4.67;;
8893;SDS011;4483;48.622;9.230;2023-03-07T12:44:11;7.40;;;4.90;;
8893;SDS011;4483;48.622;9.230;2023-03-07T12:46:43;6.77;;;5.10;;
8893;SDS011;4483;48.622;9.230;2023-03-07T12:49:15;7.80;;;4.80;;
8893;SDS011;4483;48.622;9.230;2023-03-07T12:51:50;5.20;;;4.30;;
8893;SDS011;4483;48.622;9.230;2023-03-07T12:54:20;5.20;;;4.50;;
8893;SDS011;4483;48.622;9.230;2023-03-07T12:56:52;4.67;;;4.23;;
8893;SDS011;4483;48.622;9.230;2023-03-07T12:59:23;5.13;;;4.37;;
8893;SDS011;4483;48.622;9.230;2023-03-07T13:01:53;6.00;;;4.73;;
8893;SDS011;4483;48.622;9.230;2023-03-07T13:04:27;6.73;;;4.43;;
8893;SDS011;4483;48.622;9.230;2023-03-07T13:06:59;5.93;;;4.67;;
8893;SDS011;4483;48.622;9.230;2023-03-07T13:09:32;7.23;;;3.60;;
8893;SDS011;4483;48.622;9.230;2023-03-07T13:12:07;6.37;;;4.20;;
8893;SDS011;4483;48.622;9.230;2023-03-07T13:15:00;5.00;;;3.67;;
8893;SDS011;4483;48.622;9.230;2023-03-07T13:20:34;4.60;;;3.87;;
8893;SDS011;4483;48.622;9.230;2023-03-07T13:23:21;4.97;;;3.87;;
8893;SDS011;4483;48.622;9.230;2023-03-07T13:28:46;5.90;;;3.47;;
8893;SDS011;4483;48.622;9.230;2023-03-07T13:58:14;3.77;;;3.43;;
8893;SDS011;4483;48.622;9.230;2023-03-07T14:00:52;4.30;;;3.20;;
8893;SDS011;4483;48.622;9.230;2023-03-07T14:03:24;3.27;;;2.97;;
8893;SDS011;4483;48.622;9.230;2023-03-07T14:05:54;3.20;;;2.90;;
8893;SDS011;4483;48.622;9.230;2023-03-07T14:08:24;3.87;;;3.40;;
8893;SDS011;4483;48.622;9.230;2023-03-07T14:10:58;3.30;;;3.00;;
8893;SDS011;4483;48.622;9.230;2023-03-07T14:16:24;3.47;;;2.80;;
8893;SDS011;4483;48.622;9.230;2023-03-07T14:19:07;3.47;;;2.90;;
8893;SDS011;4483;48.622;9.230;2023-03-07T14:21:43;3.80;;;2.73;;
8893;SDS011;4483;48.622;9.230;2023-03-07T14:24:21;4.87;;;3.17;;
8893;SDS011;4483;48.622;9.230;2023-03-07T14:27:04;4.67;;;3.13;;
8893;SDS011;4483;48.622;9.230;2023-03-07T14:29:36;3.80;;;3.03;;
8893;SDS011;4483;48.622;9.230;2023-03-07T14:32:17;4.53;;;2.93;;
8893;SDS011;4483;48.622;9.230;2023-03-07T14:34:47;3.60;;;3.23;;
8893;SDS011;4483;48.622;9.230;2023-03-07T14:37:14;3.40;;;3.10;;
8893;SDS011;4483;48.622;9.230;2023-03-07T14:39:45;3.53;;;3.23;;
8893;SDS011;4483;48.622;9.230;2023-03-07T14:42:21;4.03;;;3.30;;
8893;SDS011;4483;48.622;9.230;2023-03-07T14:45:05;4.07;;;3.30;;
8893;SDS011;4483;48.622;9.230;2023-03-07T14:47:44;3.93;;;3.10;;
8893;SDS011;4483;48.622;9.230;2023-03-07T14:50:21;4.67;;;3.10;;
8893;SDS011;4483;48.622;9.230;2023-03-07T14:52:51;3.70;;;3.40;;
8893;SDS011;4483;48.622;9.230;2023-03-07T14:55:24;3.60;;;3.30;;
8893;SDS011;4483;48.622;9.230;2023-03-07T14:57:53;3.40;;;3.10;;
8893;SDS011;4483;48.622;9.230;2023-03-07T15:00:22;3.60;;;3.10;;
8893;SDS011;4483;48.622;9.230;2023-03-07T15:02:52;4.53;;;2.97;;
8893;SDS011;4483;48.622;9.230;2023-03-07T15:05:21;4.00;;;2.80;;
8893;SDS011;4483;48.622;9.230;2023-03-07T15:07:49;3.00;;;2.70;;
8893;SDS011;4483;48.622;9.230;2023-03-07T15:10:16;4.30;;;3.17;;
8893;SDS011;4483;48.622;9.230;2023-03-07T15:12:47;3.27;;;2.30;;
8893;SDS011;4483;48.622;9.230;2023-03-07T15:15:22;3.53;;;2.80;;
8893;SDS011;4483;48.622;9.230;2023-03-07T15:17:51;2.97;;;2.60;;
8893;SDS011;4483;48.622;9.230;2023-03-07T15:20:20;2.50;;;2.30;;
8893;SDS011;4483;48.622;9.230;2023-03-07T15:22:51;3.17;;;2.20;;
8893;SDS011;4483;48.622;9.230;2023-03-07T15:25:27;3.37;;;2.00;;
8893;SDS011;4483;48.622;9.230;2023-03-07T15:27:56;3.23;;;2.43;;
8893;SDS011;4483;48.622;9.230;2023-03-07T15:30:27;2.80;;;2.60;;
8893;SDS011;4483;48.622;9.230;2023-03-07T15:36:05;2.80;;;2.60;;
8893;SDS011;4483;48.622;9.230;2023-03-07T15:38:43;2.53;;;2.27;;
8893;SDS011;4483;48.622;9.230;2023-03-07T15:41:24;3.57;;;2.80;;
8893;SDS011;4483;48.622;9.230;2023-03-07T15:44:13;2.77;;;2.13;;
8893;SDS011;4483;48.622;9.230;2023-03-07T15:46:44;2.40;;;2.20;;
8893;SDS011;4483;48.622;9.230;2023-03-07T15:49:16;1.97;;;1.87;;
8893;SDS011;4483;48.622;9.230;2023-03-07T15:51:45;2.80;;;2.60;;
8893;SDS011;4483;48.622;9.230;2023-03-07T15:54:17;1.93;;;1.83;;
8893;SDS011;4483;48.622;9.230;2023-03-07T15:56:56;3.20;;;2.13;;
8893;SDS011;4483;48.622;9.230;2023-03-07T15:59:26;2.50;;;2.30;;
8893;SDS011;4483;48.622;9.230;2023-03-07T16:01:57;3.27;;;2.43;;
8893;SDS011;4483;48.622;9.230;2023-03-07T16:05:01;3.40;;;2.50;;
8893;SDS011;4483;48.622;9.230;2023-03-07T16:07:29;2.50;;;2.30;;
8893;SDS011;4483;48.622;9.230;2023-03-07T16:09:56;2.53;;;2.33;;
8893;SDS011;4483;48.622;9.230;2023-03-07T16:12:22;2.97;;;2.60;;
8893;SDS011;4483;48.622;9.230;2023-03-07T16:14:50;3.00;;;2.47;;
8893;SDS011;4483;48.622;9.230;2023-03-07T16:17:20;5.40;;;2.60;;
8893;SDS011;4483;48.622;9.230;2023-03-07T16:19:51;4.40;;;2.60;;
8893;SDS011;4483;48.622;9.230;2023-03-07T16:22:18;2.90;;;2.60;;
8893;SDS011;4483;48.622;9.230;2023-03-07T16:24:45;2.70;;;2.50;;
8893;SDS011;4483;48.622;9.230;2023-03-07T16:27:13;3.03;;;2.73;;
8893;SDS011;4483;48.622;9.230;2023-03-07T16:29:41;3.10;;;2.80;;
8893;SDS011;4483;48.622;9.230;2023-03-07T16:32:09;2.77;;;2.50;;
8893;SDS011;4483;48.622;9.230;2023-03-07T16:34:38;2.83;;;2.57;;
8893;SDS011;4483;48.622;9.230;2023-03-07T16:37:05;3.43;;;2.57;;
8893;SDS011;4483;48.622;9.230;2023-03-07T16:39:32;2.57;;;2.37;;
8893;SDS011;4483;48.622;9.230;2023-03-07T16:41:58;3.90;;;3.20;;
8893;SDS011;4483;48.622;9.230;2023-03-07T16:44:25;3.20;;;2.90;;
8893;SDS011;4483;48.622;9.230;2023-03-07T16:46:54;3.53;;;2.80;;
8893;SDS011;4483;48.622;9.230;2023-03-07T16:49:22;3.70;;;2.80;;
8893;SDS011;4483;48.622;9.230;2023-03-07T16:51:50;2.80;;;2.60;;
8893;SDS011;4483;48.622;9.230;2023-03-07T16:54:17;3.53;;;2.60;;
8893;SDS011;4483;48.622;9.230;2023-03-07T16:56:44;3.60;;;2.70;;
8893;SDS011;4483;48.622;9.230;2023-03-07T16:59:14;5.93;;;2.67;;
8893;SDS011;4483;48.622;9.230;2023-03-07T17:01:43;5.50;;;3.00;;
8893;SDS011;4483;48.622;9.230;2023-03-07T17:04:11;3.10;;;2.80;;
8893;SDS011;4483;48.622;9.230;2023-03-07T17:06:38;3.23;;;2.90;;
8893;SDS011;4483;48.622;9.230;2023-03-07T17:09:08;4.63;;;2.80;;
8893;SDS011;4483;48.622;9.230;2023-03-07T17:11:36;3.53;;;3.03;;
8893;SDS011;4483;48.622;9.230;2023-03-07T17:14:04;5.53;;;3.27;;
8893;SDS011;4483;48.622;9.230;2023-03-07T17:16:33;5.40;;;3.10;;
8893;SDS011;4483;48.622;9.230;2023-03-07T17:19:04;3.23;;;2.93;;
8893;SDS011;4483;48.622;9.230;2023-03-07T17:21:32;3.90;;;2.93;;
8893;SDS011;4483;48.622;9.230;2023-03-07T17:23:59;5.00;;;3.37;;
8893;SDS011;4483;48.622;9.230;2023-03-07T17:26:27;5.33;;;3.47;;
8893;SDS011;4483;48.622;9.230;2023-03-07T17:28:57;5.67;;;3.30;;
8893;SDS011;4483;48.622;9.230;2023-03-07T17:31:28;5.20;;;3.13;;
8893;SDS011;4483;48.622;9.230;2023-03-07T17:33:54;2.93;;;2.70;;
8893;SDS011;4483;48.622;9.230;2023-03-07T17:36:21;5.47;;;3.10;;
8893;SDS011;4483;48.622;9.230;2023-03-07T17:38:48;3.80;;;2.83;;
8893;SDS011;4483;48.622;9.230;2023-03-07T17:41:14;5.40;;;3.00;;
8893;SDS011;4483;48.622;9.230;2023-03-07T17:43:43;5.53;;;2.80;;